createdAt,value
2018-06-11T00:00:33.983Z,20.70
2018-06-11T00:03:02.617Z,20.40
2018-06-11T00:05:31.426Z,20.40
2018-06-11T00:08:00.035Z,20.30
2018-06-11T00:10:28.701Z,20.20
2018-06-11T00:12:57.202Z,20.10
2018-06-11T00:15:25.779Z,20.10
2018-06-11T00:17:54.565Z,19.90
2018-06-11T00:20:23.192Z,19.90
2018-06-11T00:22:52.717Z,20.10
2018-06-11T00:25:21.167Z,20.20
2018-06-11T00:27:49.926Z,20.10
2018-06-11T00:30:18.435Z,20.10
2018-06-11T00:32:46.908Z,20.10
2018-06-11T00:35:15.681Z,20.10
2018-06-11T00:37:44.306Z,20.00
2018-06-11T00:40:13.299Z,19.90
2018-06-11T00:42:41.909Z,19.70
2018-06-11T00:45:10.365Z,19.70
2018-06-11T00:47:38.872Z,19.70
2018-06-11T00:50:07.526Z,19.80
2018-06-11T00:52:36.076Z,19.90
2018-06-11T00:55:04.649Z,20.00
2018-06-11T00:57:33.457Z,20.10
2018-06-11T01:00:02.026Z,19.90
2018-06-11T01:02:30.496Z,19.70
2018-06-11T01:04:59.689Z,19.70
2018-06-11T01:07:28.170Z,19.80
2018-06-11T01:09:56.664Z,19.90
2018-06-11T01:12:25.251Z,20.00
2018-06-11T01:14:53.749Z,20.00
2018-06-11T01:17:22.408Z,20.10
2018-06-11T01:19:51.013Z,20.10
2018-06-11T01:22:19.556Z,20.10
2018-06-11T01:24:48.046Z,20.10
2018-06-11T01:27:16.732Z,20.10
2018-06-11T01:29:45.206Z,20.10
2018-06-11T01:32:13.781Z,20.20
2018-06-11T01:34:42.387Z,20.20
2018-06-11T01:37:10.919Z,20.10
2018-06-11T01:39:39.439Z,20.10
2018-06-11T01:42:08.668Z,20.10
2018-06-11T01:44:37.234Z,20.20
2018-06-11T01:47:05.787Z,20.20
2018-06-11T01:49:34.500Z,20.20
2018-06-11T01:52:02.970Z,20.20
2018-06-11T01:54:31.454Z,20.20
2018-06-11T01:57:00.610Z,20.20
2018-06-11T01:59:29.051Z,20.10
2018-06-11T02:01:57.529Z,20.00
2018-06-11T02:04:26.124Z,19.90
2018-06-11T02:06:54.695Z,19.80
2018-06-11T02:09:23.182Z,19.60
2018-06-11T02:11:51.927Z,19.70
2018-06-11T02:14:20.484Z,19.70
2018-06-11T02:16:49.548Z,19.70
2018-06-11T02:19:17.993Z,19.80
2018-06-11T02:21:46.513Z,19.70
2018-06-11T02:24:14.978Z,19.70
2018-06-11T02:26:43.479Z,19.70
2018-06-11T02:29:12.002Z,19.80
2018-06-11T02:31:40.445Z,19.80
2018-06-11T02:34:08.866Z,19.80
2018-06-11T02:36:37.349Z,19.80
2018-06-11T02:39:07.813Z,19.80
2018-06-11T02:41:36.414Z,19.80
2018-06-11T02:44:04.950Z,19.80
2018-06-11T02:46:33.394Z,19.80
2018-06-11T02:49:02.638Z,19.80
2018-06-11T02:51:31.095Z,19.80
2018-06-11T02:53:59.704Z,19.80
2018-06-11T02:56:28.195Z,19.70
2018-06-11T02:58:56.735Z,19.70
2018-06-11T03:01:25.226Z,19.70
2018-06-11T03:03:53.709Z,19.60
2018-06-11T03:06:22.201Z,19.50
2018-06-11T03:08:50.733Z,19.50
2018-06-11T03:11:19.208Z,19.50
2018-06-11T03:13:47.709Z,19.40
2018-06-11T03:16:16.858Z,19.50
2018-06-11T03:18:45.381Z,19.60
2018-06-11T03:21:13.833Z,19.60
2018-06-11T03:23:42.316Z,19.60
2018-06-11T03:26:10.726Z,19.60
2018-06-11T03:28:39.303Z,19.60
2018-06-11T03:31:07.780Z,19.70
2018-06-11T03:33:36.415Z,19.60
2018-06-11T03:36:04.893Z,19.60
2018-06-11T03:38:33.519Z,19.60
2018-06-11T03:41:05.479Z,19.70
2018-06-11T03:43:33.930Z,19.70
2018-06-11T03:46:02.464Z,19.70
2018-06-11T03:48:30.916Z,19.70
2018-06-11T03:50:59.381Z,19.60
2018-06-11T03:53:27.865Z,19.30
2018-06-11T03:55:56.319Z,19.00
2018-06-11T03:58:25.008Z,18.80
2018-06-11T04:00:53.493Z,18.70
2018-06-11T04:03:22.037Z,18.60
2018-06-11T04:05:50.614Z,18.50
2018-06-11T04:08:19.338Z,18.50
2018-06-11T04:10:47.841Z,18.70
2018-06-11T04:13:16.278Z,18.70
2018-06-11T04:15:46.805Z,18.70
2018-06-11T04:18:15.347Z,18.90
2018-06-11T04:20:43.816Z,19.10
2018-06-11T04:23:12.334Z,19.30
2018-06-11T04:25:40.815Z,19.40
2018-06-11T04:28:09.325Z,19.50
2018-06-11T04:30:38.099Z,19.30
2018-06-11T04:33:06.598Z,19.20
2018-06-11T04:35:35.136Z,19.20
2018-06-11T04:38:03.813Z,19.20
2018-06-11T04:40:32.370Z,19.30
2018-06-11T04:45:28.969Z,19.20
2018-06-11T04:47:57.441Z,19.20
2018-06-11T04:50:25.967Z,19.20
2018-06-11T04:52:54.497Z,19.20
2018-06-11T04:55:22.962Z,19.10
2018-06-11T04:57:51.423Z,19.20
2018-06-11T05:00:19.951Z,19.50
2018-06-11T05:02:48.658Z,19.60
2018-06-11T05:05:17.505Z,19.60
2018-06-11T05:07:46.046Z,19.60
2018-06-11T05:10:14.534Z,19.80
2018-06-11T05:17:39.320Z,20.30
2018-06-11T05:20:07.879Z,20.50
2018-06-11T05:22:36.386Z,20.50
2018-06-11T05:25:04.992Z,20.50
2018-06-11T05:27:33.590Z,20.30
2018-06-11T05:30:02.021Z,20.30
2018-06-11T05:32:30.788Z,20.40
2018-06-11T05:34:59.246Z,20.60
2018-06-11T05:37:27.711Z,20.80
2018-06-11T05:39:56.194Z,20.90
2018-06-11T05:42:24.755Z,21.00
2018-06-11T05:44:53.239Z,21.20
2018-06-11T05:47:22.000Z,21.20
2018-06-11T05:49:50.520Z,21.30
2018-06-11T05:52:19.047Z,21.40
2018-06-11T05:54:47.663Z,21.50
2018-06-11T05:57:16.185Z,21.60
2018-06-11T05:59:44.739Z,21.70
2018-06-11T06:02:13.343Z,21.60
2018-06-11T06:04:42.209Z,21.70
2018-06-11T06:07:10.743Z,21.80
2018-06-11T06:09:39.232Z,21.90
2018-06-11T06:12:07.737Z,22.00
2018-06-11T06:14:36.260Z,22.10
2018-06-11T06:17:05.002Z,22.20
2018-06-11T06:19:33.528Z,22.40
2018-06-11T06:22:02.941Z,22.60
2018-06-11T06:24:31.472Z,22.80
2018-06-11T06:26:59.958Z,22.80
2018-06-11T06:29:28.421Z,22.90
2018-06-11T06:31:56.935Z,22.90
2018-06-11T06:34:25.561Z,23.10
2018-06-11T06:36:53.969Z,23.20
2018-06-11T06:39:22.452Z,23.30
2018-06-11T06:41:50.884Z,23.30
2018-06-11T06:44:19.327Z,23.50
2018-06-11T06:46:47.854Z,23.40
2018-06-11T06:49:17.221Z,23.10
2018-06-11T06:51:45.655Z,23.40
2018-06-11T06:54:14.314Z,23.50
2018-06-11T06:56:42.798Z,23.60
2018-06-11T06:59:11.249Z,23.80
2018-06-11T07:01:39.681Z,23.90
2018-06-11T07:04:08.168Z,24.00
2018-06-11T07:06:36.765Z,24.00
2018-06-11T07:09:07.613Z,23.90
2018-06-11T07:11:36.498Z,23.70
2018-06-11T07:14:04.990Z,23.90
2018-06-11T07:16:33.454Z,24.00
2018-06-11T07:19:01.905Z,24.20
2018-06-11T07:21:30.373Z,24.50
2018-06-11T07:23:58.866Z,24.30
2018-06-11T07:28:55.528Z,24.40
2018-06-11T07:31:24.006Z,24.30
2018-06-11T07:33:52.534Z,24.40
2018-06-11T07:36:21.038Z,24.30
2018-06-11T07:38:49.508Z,24.30
2018-06-11T07:41:17.987Z,24.40
2018-06-11T07:43:46.573Z,24.50
2018-06-11T07:46:15.135Z,24.70
2018-06-11T07:48:43.614Z,24.20
2018-06-11T07:51:12.143Z,24.00
2018-06-11T07:53:40.688Z,23.90
2018-06-11T07:56:09.168Z,24.20
2018-06-11T07:58:37.647Z,24.50
2018-06-11T08:01:06.185Z,24.70
2018-06-11T08:03:34.724Z,24.60
2018-06-11T08:06:03.247Z,24.70
2018-06-11T08:08:31.704Z,24.20
2018-06-11T08:11:00.379Z,24.20
2018-06-11T08:13:28.998Z,24.50
2018-06-11T08:15:57.474Z,24.70
2018-06-11T08:18:26.016Z,24.90
2018-06-11T08:20:54.640Z,25.20
2018-06-11T08:23:23.119Z,25.40
2018-06-11T08:25:51.580Z,25.60
2018-06-11T08:28:20.066Z,25.50
2018-06-11T08:30:48.604Z,25.30
2018-06-11T08:33:17.054Z,25.50
2018-06-11T08:40:41.939Z,26.40
2018-06-11T08:43:10.386Z,27.30
2018-06-11T08:45:38.862Z,27.60
2018-06-11T08:48:07.340Z,27.60
2018-06-11T08:50:35.817Z,27.20
2018-06-11T08:53:04.410Z,26.60
2018-06-11T08:55:32.861Z,26.60
2018-06-11T08:58:02.316Z,27.10
2018-06-11T09:00:30.784Z,27.40
2018-06-11T09:02:59.244Z,27.50
2018-06-11T09:05:27.730Z,27.60
2018-06-11T09:08:00.576Z,27.70
2018-06-11T09:10:29.056Z,27.70
2018-06-11T09:12:57.598Z,28.00
2018-06-11T09:15:26.090Z,27.90
2018-06-11T09:17:54.683Z,27.60
2018-06-11T09:20:23.118Z,27.30
2018-06-11T09:22:51.582Z,27.10
2018-06-11T09:25:20.069Z,26.70
2018-06-11T09:27:48.533Z,26.20
2018-06-11T09:30:17.024Z,26.70
2018-06-11T09:32:46.355Z,27.10
2018-06-11T09:35:14.882Z,27.00
2018-06-11T09:37:43.314Z,27.00
2018-06-11T09:40:11.800Z,26.50
2018-06-11T09:42:40.329Z,26.60
2018-06-11T09:45:08.884Z,26.80
2018-06-11T09:47:37.352Z,26.60
2018-06-11T09:50:05.835Z,26.20
2018-06-11T09:52:34.281Z,26.50
2018-06-11T09:55:02.774Z,26.60
2018-06-11T09:57:31.258Z,26.90
2018-06-11T09:59:59.721Z,26.90
2018-06-11T10:02:28.225Z,26.90
2018-06-11T10:04:56.775Z,26.70
2018-06-11T10:07:25.248Z,26.90
2018-06-11T10:09:53.723Z,27.00
2018-06-11T10:12:22.326Z,27.10
2018-06-11T10:14:50.701Z,27.20
2018-06-11T10:17:19.236Z,27.30
2018-06-11T10:19:47.680Z,27.20
2018-06-11T10:22:16.111Z,27.40
2018-06-11T10:24:44.646Z,27.50
2018-06-11T10:27:13.074Z,28.00
2018-06-11T10:29:41.605Z,28.40
2018-06-11T10:32:10.096Z,28.50
2018-06-11T10:37:06.740Z,28.10
2018-06-11T10:39:35.230Z,28.70
2018-06-11T10:42:03.730Z,29.50
2018-06-11T10:44:32.318Z,29.90
2018-06-11T10:47:00.845Z,29.30
2018-06-11T10:49:29.337Z,29.70
2018-06-11T10:51:57.843Z,30.00
2018-06-11T10:54:26.328Z,30.20
2018-06-11T10:56:54.796Z,30.30
2018-06-11T10:59:23.262Z,30.20
2018-06-11T11:01:51.798Z,29.40
2018-06-11T11:04:20.283Z,29.10
2018-06-11T11:06:48.828Z,29.40
2018-06-11T11:11:46.819Z,29.80
2018-06-11T11:16:43.600Z,30.00
2018-06-11T11:19:12.038Z,29.50
2018-06-11T11:21:40.475Z,29.70
2018-06-11T11:24:08.969Z,29.50
2018-06-11T11:26:37.446Z,29.70
2018-06-11T11:29:06.064Z,30.00
2018-06-11T11:31:34.531Z,30.10
2018-06-11T11:34:03.013Z,30.20
2018-06-11T11:36:32.042Z,29.90
2018-06-11T11:39:00.542Z,30.00
2018-06-11T11:41:29.669Z,29.90
2018-06-11T11:43:58.128Z,29.90
2018-06-11T11:46:26.650Z,29.70
2018-06-11T11:48:55.098Z,29.70
2018-06-11T11:51:23.555Z,29.40
2018-06-11T11:53:52.095Z,29.10
2018-06-11T11:56:20.650Z,28.70
2018-06-11T11:58:49.218Z,28.70
2018-06-11T12:01:17.829Z,28.70
2018-06-11T12:03:46.275Z,29.00
2018-06-11T12:06:14.722Z,29.50
2018-06-11T12:08:43.244Z,29.50
2018-06-11T12:11:11.740Z,29.80
2018-06-11T12:13:40.830Z,29.70
2018-06-11T12:16:10.090Z,29.60
2018-06-11T12:18:38.713Z,29.50
2018-06-11T12:21:07.233Z,29.70
2018-06-11T12:23:35.768Z,29.60
2018-06-11T12:26:04.465Z,29.30
2018-06-11T12:28:33.000Z,29.70
2018-06-11T12:31:01.557Z,29.90
2018-06-11T12:33:30.062Z,29.80
2018-06-11T12:35:58.562Z,29.70
2018-06-11T12:38:27.789Z,29.10
2018-06-11T12:40:56.398Z,28.70
2018-06-11T12:43:25.455Z,28.70
2018-06-11T12:45:54.106Z,29.00
2018-06-11T12:48:22.890Z,29.30
2018-06-11T12:50:51.431Z,29.80
2018-06-11T12:53:19.925Z,29.20
2018-06-11T12:55:48.423Z,29.40
2018-06-11T12:58:17.507Z,29.10
2018-06-11T13:00:47.209Z,29.00
2018-06-11T13:03:16.319Z,29.40
2018-06-11T13:05:44.793Z,29.60
2018-06-11T13:08:13.824Z,29.70
2018-06-11T13:10:42.417Z,29.60
2018-06-11T13:13:11.152Z,29.40
2018-06-11T13:15:39.732Z,29.20
2018-06-11T13:18:08.179Z,29.00
2018-06-11T13:20:36.629Z,29.10
2018-06-11T13:23:05.192Z,28.90
2018-06-11T13:25:33.848Z,28.80
2018-06-11T13:28:02.309Z,29.20
2018-06-11T13:30:30.823Z,28.80
2018-06-11T13:32:59.434Z,28.50
2018-06-11T13:35:27.970Z,28.70
2018-06-11T13:37:56.425Z,28.50
2018-06-11T13:40:24.931Z,28.70
2018-06-11T13:42:53.452Z,29.00
2018-06-11T13:45:22.479Z,28.80
2018-06-11T13:47:50.975Z,28.60
2018-06-11T13:50:19.668Z,28.50
2018-06-11T13:52:48.265Z,28.40
2018-06-11T13:55:17.195Z,28.20
2018-06-11T13:57:46.053Z,28.20
2018-06-11T14:00:14.682Z,28.20
2018-06-11T14:02:43.165Z,28.30
2018-06-11T14:05:13.154Z,28.40
2018-06-11T14:07:41.599Z,28.20
2018-06-11T14:10:10.233Z,28.20
2018-06-11T14:15:07.194Z,27.80
2018-06-11T14:17:35.816Z,27.40
2018-06-11T14:20:07.505Z,27.50
2018-06-11T14:22:36.865Z,27.40
2018-06-11T14:25:07.031Z,27.50
2018-06-11T14:27:36.235Z,27.80
2018-06-11T14:30:04.823Z,28.20
2018-06-11T14:32:33.534Z,28.30
2018-06-11T14:35:02.220Z,28.30
2018-06-11T14:37:30.721Z,28.10
2018-06-11T14:39:59.187Z,28.20
2018-06-11T14:42:27.633Z,28.10
2018-06-11T14:44:56.099Z,28.40
2018-06-11T14:47:24.751Z,28.50
2018-06-11T14:49:53.458Z,28.60
2018-06-11T14:52:21.980Z,28.60
2018-06-11T14:54:50.497Z,28.40
2018-06-11T14:57:18.978Z,28.30
2018-06-11T14:59:47.494Z,28.20
2018-06-11T15:02:16.025Z,28.10
2018-06-11T15:04:44.803Z,27.90
2018-06-11T15:07:13.274Z,27.70
2018-06-11T15:09:41.686Z,27.30
2018-06-11T15:12:10.125Z,27.20
2018-06-11T15:14:39.301Z,27.20
2018-06-11T15:17:07.979Z,26.90
2018-06-11T15:19:36.592Z,26.60
2018-06-11T15:22:05.181Z,26.40
2018-06-11T15:24:33.730Z,26.20
2018-06-11T15:27:02.234Z,26.30
2018-06-11T15:29:30.801Z,26.10
2018-06-11T15:31:59.264Z,25.80
2018-06-11T15:34:27.750Z,25.80
2018-06-11T15:36:56.368Z,25.60
2018-06-11T15:39:25.607Z,25.60
2018-06-11T15:41:54.121Z,25.40
2018-06-11T15:44:22.999Z,25.00
2018-06-11T15:46:51.662Z,24.80
2018-06-11T15:49:20.194Z,24.60
2018-06-11T15:51:48.729Z,24.50
2018-06-11T15:54:17.501Z,24.40
2018-06-11T15:59:15.196Z,24.00
2018-06-11T16:01:43.711Z,24.10
2018-06-11T16:04:12.956Z,23.90
2018-06-11T16:06:41.530Z,23.80
2018-06-11T16:09:10.085Z,23.70
2018-06-11T16:11:39.416Z,23.50
2018-06-11T16:14:14.321Z,23.20
2018-06-11T16:16:42.868Z,22.90
2018-06-11T16:19:11.527Z,22.70
2018-06-11T16:21:40.077Z,22.30
2018-06-11T16:24:09.048Z,21.90
2018-06-11T16:26:38.212Z,21.80
2018-06-11T16:29:06.855Z,21.80
2018-06-11T16:31:35.984Z,21.30
2018-06-11T16:34:07.819Z,21.30
2018-06-11T16:36:46.830Z,21.00
2018-06-11T16:39:15.335Z,21.00
2018-06-11T16:41:55.558Z,21.10
2018-06-11T16:44:25.008Z,21.20
2018-06-11T16:46:53.514Z,21.20
2018-06-11T16:49:22.074Z,21.10
2018-06-11T16:51:59.661Z,21.00
2018-06-11T16:54:28.179Z,20.90
2018-06-11T16:56:56.874Z,20.90
2018-06-11T16:59:25.554Z,20.90
2018-06-11T17:01:54.161Z,20.70
2018-06-11T17:04:27.128Z,20.60
2018-06-11T17:07:08.974Z,20.60
2018-06-11T17:09:37.483Z,20.60
2018-06-11T17:12:06.029Z,20.60
2018-06-11T17:14:34.519Z,20.70
2018-06-11T17:17:03.142Z,20.70
2018-06-11T17:19:32.292Z,20.70
2018-06-11T17:22:00.894Z,20.50
2018-06-11T17:24:29.431Z,20.40
2018-06-11T17:26:57.979Z,20.40
2018-06-11T17:29:26.519Z,20.20
2018-06-11T17:31:55.293Z,20.40
2018-06-11T17:34:23.808Z,20.40
2018-06-11T17:36:52.338Z,20.40
2018-06-11T17:39:20.851Z,20.20
2018-06-11T17:41:49.384Z,20.40
2018-06-11T17:44:17.866Z,20.40
2018-06-11T17:46:46.387Z,20.40
2018-06-11T17:49:14.871Z,20.40
2018-06-11T17:51:43.427Z,20.50
2018-06-11T17:54:11.938Z,20.50
2018-06-11T17:56:42.328Z,20.50
2018-06-11T17:59:11.405Z,20.60
2018-06-11T18:01:40.127Z,20.50
2018-06-11T18:04:12.728Z,20.50
2018-06-11T18:06:41.541Z,20.60
2018-06-11T18:09:10.860Z,20.60
2018-06-11T18:11:39.385Z,20.60
2018-06-11T18:14:07.875Z,20.50
2018-06-11T18:16:36.421Z,20.50
2018-06-11T18:19:05.508Z,20.50
2018-06-11T18:24:03.324Z,20.40
2018-06-11T18:26:31.823Z,20.50
2018-06-11T18:29:00.296Z,20.40
2018-06-11T18:31:28.772Z,20.50
2018-06-11T18:33:57.359Z,20.50
2018-06-11T18:36:25.906Z,20.50
2018-06-11T18:41:22.566Z,20.40
2018-06-11T18:43:51.072Z,20.40
2018-06-11T18:46:19.687Z,20.50
2018-06-11T18:48:48.928Z,20.40
2018-06-11T18:53:45.622Z,20.30
2018-06-11T18:56:14.083Z,20.30
2018-06-11T18:58:42.525Z,20.30
2018-06-11T19:01:11.060Z,20.40
2018-06-11T19:03:39.602Z,20.30
2018-06-11T19:06:08.171Z,20.40
2018-06-11T19:08:36.701Z,20.50
2018-06-11T19:11:05.206Z,20.50
2018-06-11T19:13:33.683Z,20.50
2018-06-11T19:16:02.184Z,20.50
2018-06-11T19:18:30.779Z,20.50
2018-06-11T19:20:59.260Z,20.50
2018-06-11T19:23:27.824Z,20.40
2018-06-11T19:25:56.311Z,20.50
2018-06-11T19:28:25.444Z,20.50
2018-06-11T19:30:53.983Z,20.50
2018-06-11T19:33:22.537Z,20.60
2018-06-11T19:35:51.380Z,20.60
2018-06-11T19:38:19.896Z,20.60
2018-06-11T19:45:46.173Z,20.60
2018-06-11T19:48:14.841Z,20.60
2018-06-11T19:50:43.580Z,20.50
2018-06-11T19:53:12.106Z,20.50
2018-06-11T19:55:40.706Z,20.30
2018-06-11T19:58:09.500Z,20.30
2018-06-11T20:00:38.065Z,20.40
2018-06-11T20:03:06.994Z,20.40
2018-06-11T20:05:35.641Z,20.40
2018-06-11T20:08:04.142Z,20.40
2018-06-11T20:10:32.795Z,20.50
2018-06-11T20:13:01.646Z,20.40
2018-06-11T20:15:30.165Z,20.30
2018-06-11T20:17:59.224Z,20.30
2018-06-11T20:20:27.821Z,20.20
2018-06-11T20:22:56.679Z,20.20
2018-06-11T20:25:25.624Z,20.20
2018-06-11T20:30:22.494Z,20.30
2018-06-11T20:32:51.006Z,20.30
2018-06-11T20:35:19.830Z,20.20
2018-06-11T20:37:48.455Z,20.20
2018-06-11T20:40:16.960Z,20.20
2018-06-11T20:42:45.861Z,20.20
2018-06-11T20:45:14.557Z,20.20
2018-06-11T20:47:43.273Z,20.20
2018-06-11T20:50:11.811Z,20.40
2018-06-11T20:52:40.329Z,20.40
2018-06-11T20:55:09.017Z,20.50
2018-06-11T20:57:37.478Z,20.30
2018-06-11T21:00:06.150Z,20.40
2018-06-11T21:02:34.748Z,20.30
2018-06-11T21:05:03.282Z,20.30
2018-06-11T21:07:31.804Z,20.20
2018-06-11T21:10:00.371Z,20.20
2018-06-11T21:12:28.895Z,20.10
2018-06-11T21:14:57.638Z,20.10
2018-06-11T21:17:26.134Z,20.20
2018-06-11T21:19:54.812Z,20.30
2018-06-11T21:22:25.977Z,20.30
2018-06-11T21:24:54.772Z,20.30
2018-06-11T21:27:23.308Z,20.30
2018-06-11T21:29:51.854Z,20.30
2018-06-11T21:32:21.875Z,20.30
2018-06-11T21:34:50.393Z,20.30
2018-06-11T21:37:18.847Z,20.20
2018-06-11T21:39:49.443Z,20.10
2018-06-11T21:42:18.499Z,20.00
2018-06-11T21:44:46.933Z,20.00
2018-06-11T21:47:15.432Z,19.90
2018-06-11T21:49:43.867Z,19.80
2018-06-11T21:52:12.335Z,19.90
2018-06-11T21:54:40.846Z,19.90
2018-06-11T21:57:09.411Z,19.90
2018-06-11T21:59:37.912Z,19.80
2018-06-11T22:02:06.451Z,19.80
2018-06-11T22:04:34.869Z,19.80
2018-06-11T22:07:03.411Z,19.80
2018-06-11T22:09:31.853Z,19.70
2018-06-11T22:12:00.368Z,19.50
2018-06-11T22:14:28.838Z,19.30
2018-06-11T22:16:57.388Z,19.30
2018-06-11T22:19:26.519Z,19.30
2018-06-11T22:21:55.363Z,19.20
2018-06-11T22:24:23.840Z,19.30
2018-06-11T22:26:53.942Z,19.30
2018-06-11T22:29:22.453Z,19.30
2018-06-11T22:31:50.907Z,19.30
2018-06-11T22:34:19.997Z,19.40
2018-06-11T22:36:48.484Z,19.30
2018-06-11T22:39:17.028Z,19.30
2018-06-11T22:41:45.564Z,19.20
2018-06-11T22:44:14.593Z,19.20
2018-06-11T22:46:48.158Z,19.20
2018-06-11T22:51:44.814Z,19.20
2018-06-11T22:54:13.307Z,19.20
2018-06-11T22:56:41.735Z,19.30
2018-06-11T22:59:10.173Z,19.20
2018-06-11T23:01:38.621Z,19.20
2018-06-11T23:04:07.168Z,19.20
2018-06-11T23:06:35.924Z,19.20
2018-06-11T23:09:06.726Z,19.10
2018-06-11T23:11:35.424Z,19.10
2018-06-11T23:14:04.612Z,19.10
2018-06-11T23:16:33.149Z,19.10
2018-06-11T23:19:01.656Z,19.10
2018-06-11T23:21:30.093Z,19.00
2018-06-11T23:23:58.853Z,18.90
2018-06-11T23:26:27.299Z,18.90
2018-06-11T23:28:55.708Z,18.90
2018-06-11T23:31:24.169Z,19.00
2018-06-11T23:33:52.675Z,19.00
2018-06-11T23:36:21.141Z,19.00
2018-06-11T23:38:49.681Z,19.00
2018-06-11T23:41:18.216Z,18.90
2018-06-11T23:43:46.702Z,18.80
2018-06-11T23:46:15.265Z,18.70
2018-06-11T23:48:43.721Z,18.60
2018-06-11T23:51:12.263Z,18.60
2018-06-11T23:54:28.845Z,18.50
